sensor_id;sensor_type;location;lat;lon;timestamp;P1;durP1;ratioP1;P2;durP2;ratioP2
19653;SDS011;9975;48.046;7.804;2022-11-14T01:57:30;20.10;;;6.88;;
19653;SDS011;9975;48.046;7.804;2022-11-14T02:00:00;21.10;;;7.00;;
19653;SDS011;9975;48.046;7.804;2022-11-14T02:02:29;41.65;;;9.20;;
19653;SDS011;9975;48.046;7.804;2022-11-14T02:04:56;24.53;;;8.30;;
19653;SDS011;9975;48.046;7.804;2022-11-14T02:07:27;50.05;;;8.57;;
19653;SDS011;9975;48.046;7.804;2022-11-14T02:09:57;24.70;;;7.25;;
19653;SDS011;9975;48.046;7.804;2022-11-14T02:12:25;18.67;;;6.68;;
19653;SDS011;9975;48.046;7.804;2022-11-14T02:14:52;19.53;;;5.60;;
19653;SDS011;9975;48.046;7.804;2022-11-14T02:17:19;55.78;;;7.97;;
19653;SDS011;9975;48.046;7.804;2022-11-14T02:19:47;22.63;;;6.63;;
19653;SDS011;9975;48.046;7.804;2022-11-14T02:22:15;26.85;;;5.93;;
19653;SDS011;9975;48.046;7.804;2022-11-14T02:24:42;20.27;;;5.47;;
19653;SDS011;9975;48.046;7.804;2022-11-14T02:27:08;32.95;;;6.95;;
19653;SDS011;9975;48.046;7.804;2022-11-14T02:32:50;34.28;;;8.82;;
19653;SDS011;9975;48.046;7.804;2022-11-14T02:35:15;21.83;;;6.97;;
19653;SDS011;9975;48.046;7.804;2022-11-14T02:37:41;20.77;;;5.60;;
19653;SDS011;9975;48.046;7.804;2022-11-14T02:40:07;21.37;;;5.27;;
19653;SDS011;9975;48.046;7.804;2022-11-14T02:42:33;7.57;;;4.28;;
19653;SDS011;9975;48.046;7.804;2022-11-14T02:44:59;22.93;;;7.17;;
19653;SDS011;9975;48.046;7.804;2022-11-14T02:47:24;13.30;;;5.43;;
19653;SDS011;9975;48.046;7.804;2022-11-14T02:49:50;18.43;;;6.03;;
19653;SDS011;9975;48.046;7.804;2022-11-14T02:52:16;21.80;;;4.80;;
19653;SDS011;9975;48.046;7.804;2022-11-14T02:54:42;8.20;;;4.90;;
19653;SDS011;9975;48.046;7.804;2022-11-14T02:57:07;24.03;;;5.60;;
19653;SDS011;9975;48.046;7.804;2022-11-14T02:59:33;7.33;;;5.00;;
19653;SDS011;9975;48.046;7.804;2022-11-14T03:01:59;43.17;;;7.17;;
19653;SDS011;9975;48.046;7.804;2022-11-14T03:04:24;15.83;;;5.17;;
19653;SDS011;9975;48.046;7.804;2022-11-14T03:06:50;20.97;;;5.10;;
19653;SDS011;9975;48.046;7.804;2022-11-14T03:09:16;19.63;;;4.70;;
19653;SDS011;9975;48.046;7.804;2022-11-14T03:11:42;15.50;;;4.55;;
19653;SDS011;9975;48.046;7.804;2022-11-14T03:14:08;16.30;;;5.40;;
19653;SDS011;9975;48.046;7.804;2022-11-14T03:16:33;10.33;;;4.67;;
19653;SDS011;9975;48.046;7.804;2022-11-14T03:18:59;12.67;;;4.70;;
19653;SDS011;9975;48.046;7.804;2022-11-14T03:21:25;7.67;;;4.50;;
19653;SDS011;9975;48.046;7.804;2022-11-14T03:23:50;9.80;;;3.90;;
19653;SDS011;9975;48.046;7.804;2022-11-14T03:26:16;10.90;;;5.20;;
19653;SDS011;9975;48.046;7.804;2022-11-14T03:28:42;13.43;;;4.80;;
19653;SDS011;9975;48.046;7.804;2022-11-14T03:31:09;10.20;;;4.50;;
19653;SDS011;9975;48.046;7.804;2022-11-14T03:33:36;13.20;;;4.70;;
19653;SDS011;9975;48.046;7.804;2022-11-14T03:36:02;6.63;;;3.60;;
19653;SDS011;9975;48.046;7.804;2022-11-14T03:38:28;11.18;;;3.75;;
19653;SDS011;9975;48.046;7.804;2022-11-14T03:40:53;5.33;;;3.23;;
19653;SDS011;9975;48.046;7.804;2022-11-14T03:43:21;9.18;;;3.30;;
19653;SDS011;9975;48.046;7.804;2022-11-14T03:45:47;7.23;;;3.23;;
19653;SDS011;9975;48.046;7.804;2022-11-14T03:48:12;12.27;;;4.10;;
19653;SDS011;9975;48.046;7.804;2022-11-14T03:50:39;5.55;;;3.28;;
19653;SDS011;9975;48.046;7.804;2022-11-14T03:53:05;6.20;;;4.13;;
19653;SDS011;9975;48.046;7.804;2022-11-14T03:55:31;6.73;;;3.63;;
19653;SDS011;9975;48.046;7.804;2022-11-14T03:57:57;4.97;;;3.20;;
19653;SDS011;9975;48.046;7.804;2022-11-14T04:00:23;4.90;;;3.40;;
19653;SDS011;9975;48.046;7.804;2022-11-14T04:02:49;5.57;;;3.33;;
19653;SDS011;9975;48.046;7.804;2022-11-14T04:05:14;5.20;;;3.73;;
19653;SDS011;9975;48.046;7.804;2022-11-14T04:07:40;7.87;;;3.70;;
19653;SDS011;9975;48.046;7.804;2022-11-14T04:10:06;9.30;;;3.17;;
19653;SDS011;9975;48.046;7.804;2022-11-14T04:12:32;6.20;;;3.28;;
19653;SDS011;9975;48.046;7.804;2022-11-14T04:14:57;5.63;;;2.87;;
19653;SDS011;9975;48.046;7.804;2022-11-14T04:17:23;5.27;;;3.80;;
19653;SDS011;9975;48.046;7.804;2022-11-14T04:19:49;4.60;;;3.17;;
19653;SDS011;9975;48.046;7.804;2022-11-14T04:22:14;6.90;;;3.40;;
19653;SDS011;9975;48.046;7.804;2022-11-14T04:24:40;5.30;;;3.80;;
19653;SDS011;9975;48.046;7.804;2022-11-14T04:27:05;4.90;;;3.80;;
19653;SDS011;9975;48.046;7.804;2022-11-14T04:29:31;7.30;;;4.10;;
19653;SDS011;9975;48.046;7.804;2022-11-14T04:31:57;5.60;;;2.50;;
19653;SDS011;9975;48.046;7.804;2022-11-14T04:34:23;3.60;;;2.93;;
19653;SDS011;9975;48.046;7.804;2022-11-14T04:36:48;3.20;;;2.70;;
19653;SDS011;9975;48.046;7.804;2022-11-14T04:39:15;5.75;;;3.63;;
19653;SDS011;9975;48.046;7.804;2022-11-14T04:41:41;3.65;;;2.97;;
19653;SDS011;9975;48.046;7.804;2022-11-14T04:44:07;8.33;;;4.77;;
19653;SDS011;9975;48.046;7.804;2022-11-14T04:46:33;8.90;;;4.60;;
19653;SDS011;9975;48.046;7.804;2022-11-14T04:48:58;11.00;;;5.43;;
19653;SDS011;9975;48.046;7.804;2022-11-14T04:51:24;8.90;;;5.23;;
19653;SDS011;9975;48.046;7.804;2022-11-14T04:53:49;5.23;;;3.67;;
19653;SDS011;9975;48.046;7.804;2022-11-14T04:56:15;8.73;;;4.77;;
19653;SDS011;9975;48.046;7.804;2022-11-14T04:58:41;8.80;;;5.33;;
19653;SDS011;9975;48.046;7.804;2022-11-14T05:01:07;8.00;;;4.73;;
19653;SDS011;9975;48.046;7.804;2022-11-14T05:03:37;7.80;;;4.65;;
19653;SDS011;9975;48.046;7.804;2022-11-14T05:06:03;12.57;;;5.50;;
19653;SDS011;9975;48.046;7.804;2022-11-14T05:08:28;11.63;;;6.27;;
19653;SDS011;9975;48.046;7.804;2022-11-14T05:10:54;10.43;;;5.80;;
19653;SDS011;9975;48.046;7.804;2022-11-14T05:13:20;19.60;;;5.10;;
19653;SDS011;9975;48.046;7.804;2022-11-14T05:15:46;10.00;;;5.00;;
19653;SDS011;9975;48.046;7.804;2022-11-14T05:18:11;10.30;;;5.63;;
19653;SDS011;9975;48.046;7.804;2022-11-14T05:20:37;11.07;;;5.70;;
19653;SDS011;9975;48.046;7.804;2022-11-14T05:23:02;19.93;;;7.00;;
19653;SDS011;9975;48.046;7.804;2022-11-14T05:25:28;23.33;;;4.90;;
19653;SDS011;9975;48.046;7.804;2022-11-14T05:27:54;8.37;;;5.00;;
19653;SDS011;9975;48.046;7.804;2022-11-14T05:30:20;9.53;;;5.20;;
19653;SDS011;9975;48.046;7.804;2022-11-14T05:32:45;8.47;;;4.97;;
19653;SDS011;9975;48.046;7.804;2022-11-14T05:35:11;9.40;;;5.60;;
19653;SDS011;9975;48.046;7.804;2022-11-14T05:37:37;9.70;;;4.97;;
19653;SDS011;9975;48.046;7.804;2022-11-14T05:40:03;7.53;;;4.70;;
19653;SDS011;9975;48.046;7.804;2022-11-14T05:42:30;9.27;;;6.15;;
19653;SDS011;9975;48.046;7.804;2022-11-14T05:44:55;8.97;;;4.20;;
19653;SDS011;9975;48.046;7.804;2022-11-14T05:47:21;9.03;;;5.03;;
19653;SDS011;9975;48.046;7.804;2022-11-14T05:49:47;14.40;;;6.43;;
19653;SDS011;9975;48.046;7.804;2022-11-14T05:52:12;9.47;;;4.20;;
19653;SDS011;9975;48.046;7.804;2022-11-14T05:54:38;9.13;;;4.93;;
19653;SDS011;9975;48.046;7.804;2022-11-14T05:57:04;11.57;;;6.07;;
19653;SDS011;9975;48.046;7.804;2022-11-14T05:59:29;15.27;;;6.10;;
19653;SDS011;9975;48.046;7.804;2022-11-14T06:01:55;7.03;;;4.63;;
19653;SDS011;9975;48.046;7.804;2022-11-14T06:04:21;7.73;;;4.60;;
19653;SDS011;9975;48.046;7.804;2022-11-14T06:06:47;7.40;;;5.10;;
19653;SDS011;9975;48.046;7.804;2022-11-14T06:09:13;9.20;;;5.60;;
19653;SDS011;9975;48.046;7.804;2022-11-14T06:11:38;10.57;;;5.10;;
19653;SDS011;9975;48.046;7.804;2022-11-14T06:14:04;5.90;;;4.67;;
19653;SDS011;9975;48.046;7.804;2022-11-14T06:16:30;8.27;;;5.28;;
19653;SDS011;9975;48.046;7.804;2022-11-14T06:18:56;4.50;;;3.80;;
19653;SDS011;9975;48.046;7.804;2022-11-14T06:21:22;6.53;;;4.63;;
19653;SDS011;9975;48.046;7.804;2022-11-14T06:23:49;6.50;;;4.43;;
19653;SDS011;9975;48.046;7.804;2022-11-14T06:26:20;6.73;;;4.63;;
19653;SDS011;9975;48.046;7.804;2022-11-14T06:28:46;6.10;;;3.90;;
19653;SDS011;9975;48.046;7.804;2022-11-14T06:31:13;6.10;;;3.70;;
19653;SDS011;9975;48.046;7.804;2022-11-14T06:33:39;7.90;;;4.93;;
19653;SDS011;9975;48.046;7.804;2022-11-14T06:36:05;9.37;;;5.27;;
19653;SDS011;9975;48.046;7.804;2022-11-14T06:38:32;7.67;;;5.10;;
19653;SDS011;9975;48.046;7.804;2022-11-14T06:41:02;7.80;;;5.40;;
19653;SDS011;9975;48.046;7.804;2022-11-14T06:43:33;7.67;;;4.70;;
19653;SDS011;9975;48.046;7.804;2022-11-14T06:45:59;5.53;;;3.60;;
19653;SDS011;9975;48.046;7.804;2022-11-14T06:48:26;6.67;;;4.10;;
19653;SDS011;9975;48.046;7.804;2022-11-14T06:50:52;7.87;;;5.20;;
19653;SDS011;9975;48.046;7.804;2022-11-14T06:53:19;8.07;;;4.10;;
19653;SDS011;9975;48.046;7.804;2022-11-14T06:56:02;6.20;;;4.33;;
19653;SDS011;9975;48.046;7.804;2022-11-14T06:58:31;7.93;;;4.45;;
19653;SDS011;9975;48.046;7.804;2022-11-14T07:01:09;7.80;;;4.83;;
19653;SDS011;9975;48.046;7.804;2022-11-14T07:03:35;9.23;;;4.93;;
19653;SDS011;9975;48.046;7.804;2022-11-14T07:06:01;6.70;;;4.70;;
19653;SDS011;9975;48.046;7.804;2022-11-14T07:08:28;7.40;;;4.73;;
19653;SDS011;9975;48.046;7.804;2022-11-14T07:11:05;7.17;;;5.10;;
19653;SDS011;9975;48.046;7.804;2022-11-14T07:13:32;10.03;;;6.00;;
19653;SDS011;9975;48.046;7.804;2022-11-14T07:15:59;10.70;;;6.67;;
19653;SDS011;9975;48.046;7.804;2022-11-14T07:18:25;8.70;;;5.73;;
19653;SDS011;9975;48.046;7.804;2022-11-14T07:21:01;7.57;;;5.03;;
19653;SDS011;9975;48.046;7.804;2022-11-14T07:23:29;11.47;;;6.40;;
19653;SDS011;9975;48.046;7.804;2022-11-14T07:25:59;11.23;;;8.27;;
19653;SDS011;9975;48.046;7.804;2022-11-14T07:28:26;9.20;;;6.50;;
19653;SDS011;9975;48.046;7.804;2022-11-14T07:30:52;12.10;;;6.70;;
19653;SDS011;9975;48.046;7.804;2022-11-14T07:33:17;14.53;;;8.80;;
19653;SDS011;9975;48.046;7.804;2022-11-14T07:35:43;13.80;;;6.40;;
19653;SDS011;9975;48.046;7.804;2022-11-14T07:38:08;11.60;;;6.20;;
19653;SDS011;9975;48.046;7.804;2022-11-14T07:40:34;9.50;;;5.77;;
19653;SDS011;9975;48.046;7.804;2022-11-14T07:43:01;13.90;;;10.17;;
19653;SDS011;9975;48.046;7.804;2022-11-14T07:45:27;10.30;;;5.80;;
19653;SDS011;9975;48.046;7.804;2022-11-14T07:47:57;7.43;;;5.47;;
19653;SDS011;9975;48.046;7.804;2022-11-14T07:50:24;6.80;;;5.20;;
19653;SDS011;9975;48.046;7.804;2022-11-14T07:52:51;10.73;;;5.50;;
19653;SDS011;9975;48.046;7.804;2022-11-14T07:55:18;10.63;;;6.47;;
19653;SDS011;9975;48.046;7.804;2022-11-14T07:57:44;9.47;;;5.87;;
19653;SDS011;9975;48.046;7.804;2022-11-14T08:00:10;9.90;;;6.47;;
19653;SDS011;9975;48.046;7.804;2022-11-14T08:02:36;10.63;;;6.23;;
19653;SDS011;9975;48.046;7.804;2022-11-14T08:05:01;11.27;;;6.10;;
19653;SDS011;9975;48.046;7.804;2022-11-14T08:07:27;7.60;;;5.70;;
19653;SDS011;9975;48.046;7.804;2022-11-14T08:09:53;6.70;;;4.80;;
19653;SDS011;9975;48.046;7.804;2022-11-14T08:12:18;9.67;;;6.50;;
19653;SDS011;9975;48.046;7.804;2022-11-14T08:14:44;11.03;;;7.43;;
19653;SDS011;9975;48.046;7.804;2022-11-14T08:17:10;10.30;;;6.10;;
19653;SDS011;9975;48.046;7.804;2022-11-14T08:19:35;9.67;;;6.70;;
19653;SDS011;9975;48.046;7.804;2022-11-14T08:22:01;12.80;;;7.90;;
19653;SDS011;9975;48.046;7.804;2022-11-14T08:24:27;11.10;;;7.70;;
19653;SDS011;9975;48.046;7.804;2022-11-14T08:26:52;11.50;;;6.90;;
19653;SDS011;9975;48.046;7.804;2022-11-14T08:29:18;10.40;;;6.27;;
19653;SDS011;9975;48.046;7.804;2022-11-14T08:31:44;13.17;;;8.87;;
19653;SDS011;9975;48.046;7.804;2022-11-14T08:34:10;11.13;;;6.97;;
19653;SDS011;9975;48.046;7.804;2022-11-14T08:36:36;16.77;;;9.77;;
19653;SDS011;9975;48.046;7.804;2022-11-14T08:39:01;11.20;;;6.63;;
19653;SDS011;9975;48.046;7.804;2022-11-14T08:41:27;11.87;;;7.57;;
19653;SDS011;9975;48.046;7.804;2022-11-14T08:43:53;15.80;;;7.87;;
19653;SDS011;9975;48.046;7.804;2022-11-14T08:46:19;12.50;;;8.73;;
19653;SDS011;9975;48.046;7.804;2022-11-14T08:48:44;10.60;;;7.57;;
19653;SDS011;9975;48.046;7.804;2022-11-14T08:51:10;9.57;;;7.20;;
19653;SDS011;9975;48.046;7.804;2022-11-14T08:53:35;10.77;;;6.67;;
19653;SDS011;9975;48.046;7.804;2022-11-14T08:56:01;8.23;;;6.37;;
19653;SDS011;9975;48.046;7.804;2022-11-14T08:58:27;9.67;;;6.13;;
19653;SDS011;9975;48.046;7.804;2022-11-14T09:00:57;8.93;;;7.20;;
19653;SDS011;9975;48.046;7.804;2022-11-14T09:03:27;12.77;;;8.47;;
19653;SDS011;9975;48.046;7.804;2022-11-14T09:05:52;11.70;;;7.97;;
19653;SDS011;9975;48.046;7.804;2022-11-14T09:08:18;10.80;;;8.73;;
19653;SDS011;9975;48.046;7.804;2022-11-14T09:10:44;10.93;;;7.33;;
19653;SDS011;9975;48.046;7.804;2022-11-14T09:13:10;13.40;;;10.00;;
19653;SDS011;9975;48.046;7.804;2022-11-14T09:15:35;12.13;;;8.97;;
19653;SDS011;9975;48.046;7.804;2022-11-14T09:18:01;9.63;;;7.90;;
19653;SDS011;9975;48.046;7.804;2022-11-14T09:20:29;10.13;;;7.17;;
19653;SDS011;9975;48.046;7.804;2022-11-14T09:22:58;11.87;;;7.67;;
19653;SDS011;9975;48.046;7.804;2022-11-14T09:25:24;9.40;;;7.00;;
19653;SDS011;9975;48.046;7.804;2022-11-14T09:27:53;11.80;;;6.33;;
19653;SDS011;9975;48.046;7.804;2022-11-14T09:30:19;8.80;;;6.80;;
19653;SDS011;9975;48.046;7.804;2022-11-14T09:32:46;11.93;;;8.57;;
19653;SDS011;9975;48.046;7.804;2022-11-14T09:35:12;13.30;;;7.37;;
19653;SDS011;9975;48.046;7.804;2022-11-14T09:37:38;14.53;;;9.30;;
19653;SDS011;9975;48.046;7.804;2022-11-14T09:40:04;13.97;;;9.20;;
19653;SDS011;9975;48.046;7.804;2022-11-14T09:45:11;10.27;;;6.97;;
19653;SDS011;9975;48.046;7.804;2022-11-14T09:47:49;10.93;;;7.53;;
19653;SDS011;9975;48.046;7.804;2022-11-14T09:50:30;7.10;;;5.00;;
19653;SDS011;9975;48.046;7.804;2022-11-14T09:53:00;7.00;;;5.47;;
19653;SDS011;9975;48.046;7.804;2022-11-14T09:55:33;8.73;;;5.80;;
19653;SDS011;9975;48.046;7.804;2022-11-14T09:57:59;11.13;;;7.63;;
19653;SDS011;9975;48.046;7.804;2022-11-14T10:00:38;179.73;;;79.50;;
19653;SDS011;9975;48.046;7.804;2022-11-14T10:05:58;9.70;;;7.50;;
19653;SDS011;9975;48.046;7.804;2022-11-14T10:20:00;11.40;;;6.60;;
19653;SDS011;9975;48.046;7.804;2022-11-14T10:25:25;9.73;;;6.63;;
19653;SDS011;9975;48.046;7.804;2022-11-14T10:30:46;11.50;;;8.40;;
19653;SDS011;9975;48.046;7.804;2022-11-14T10:33:28;12.47;;;6.80;;
19653;SDS011;9975;48.046;7.804;2022-11-14T10:36:21;12.63;;;7.07;;
19653;SDS011;9975;48.046;7.804;2022-11-14T10:39:23;9.20;;;6.07;;
19653;SDS011;9975;48.046;7.804;2022-11-14T10:42:00;9.70;;;6.93;;
19653;SDS011;9975;48.046;7.804;2022-11-14T10:44:40;12.73;;;7.57;;
19653;SDS011;9975;48.046;7.804;2022-11-14T10:47:14;13.60;;;6.70;;
19653;SDS011;9975;48.046;7.804;2022-11-14T10:49:45;9.90;;;6.40;;
19653;SDS011;9975;48.046;7.804;2022-11-14T10:52:14;12.63;;;6.60;;
19653;SDS011;9975;48.046;7.804;2022-11-14T10:54:44;9.90;;;5.93;;
19653;SDS011;9975;48.046;7.804;2022-11-14T10:57:30;9.27;;;5.67;;
19653;SDS011;9975;48.046;7.804;2022-11-14T10:59:56;10.27;;;6.07;;
19653;SDS011;9975;48.046;7.804;2022-11-14T11:02:22;9.37;;;6.17;;
19653;SDS011;9975;48.046;7.804;2022-11-14T11:04:48;29.23;;;11.97;;
19653;SDS011;9975;48.046;7.804;2022-11-14T11:10:05;8.23;;;6.23;;
19653;SDS011;9975;48.046;7.804;2022-11-14T11:13:01;8.47;;;4.97;;
19653;SDS011;9975;48.046;7.804;2022-11-14T11:15:29;8.60;;;5.17;;
19653;SDS011;9975;48.046;7.804;2022-11-14T11:17:56;28.50;;;9.17;;
19653;SDS011;9975;48.046;7.804;2022-11-14T11:20:25;26.67;;;11.60;;
19653;SDS011;9975;48.046;7.804;2022-11-14T11:23:03;33.20;;;15.50;;
19653;SDS011;9975;48.046;7.804;2022-11-14T11:25:31;25.03;;;12.40;;
19653;SDS011;9975;48.046;7.804;2022-11-14T11:30:35;16.20;;;7.00;;
19653;SDS011;9975;48.046;7.804;2022-11-14T11:33:15;9.43;;;5.40;;
19653;SDS011;9975;48.046;7.804;2022-11-14T11:35:49;17.17;;;10.10;;
19653;SDS011;9975;48.046;7.804;2022-11-14T11:38:19;9.67;;;6.60;;
19653;SDS011;9975;48.046;7.804;2022-11-14T11:40:49;14.07;;;6.90;;
19653;SDS011;9975;48.046;7.804;2022-11-14T11:43:25;9.73;;;6.20;;
19653;SDS011;9975;48.046;7.804;2022-11-14T11:48:26;13.60;;;9.10;;
19653;SDS011;9975;48.046;7.804;2022-11-14T11:51:04;13.80;;;7.53;;
19653;SDS011;9975;48.046;7.804;2022-11-14T11:53:41;9.80;;;6.80;;
19653;SDS011;9975;48.046;7.804;2022-11-14T11:56:20;22.75;;;14.63;;
19653;SDS011;9975;48.046;7.804;2022-11-14T11:59:16;13.97;;;8.50;;
19653;SDS011;9975;48.046;7.804;2022-11-14T12:01:45;11.23;;;6.70;;
19653;SDS011;9975;48.046;7.804;2022-11-14T12:04:11;18.63;;;11.23;;
19653;SDS011;9975;48.046;7.804;2022-11-14T12:06:41;13.27;;;7.40;;
19653;SDS011;9975;48.046;7.804;2022-11-14T12:09:19;11.90;;;7.00;;
19653;SDS011;9975;48.046;7.804;2022-11-14T12:11:59;10.83;;;6.50;;
19653;SDS011;9975;48.046;7.804;2022-11-14T12:28:55;24.70;;;12.37;;
19653;SDS011;9975;48.046;7.804;2022-11-14T12:31:31;11.00;;;6.60;;
19653;SDS011;9975;48.046;7.804;2022-11-14T12:34:01;6.30;;;5.00;;
19653;SDS011;9975;48.046;7.804;2022-11-14T12:36:32;6.20;;;5.57;;
19653;SDS011;9975;48.046;7.804;2022-11-14T12:38:59;8.10;;;4.07;;
19653;SDS011;9975;48.046;7.804;2022-11-14T12:41:28;7.27;;;3.57;;
19653;SDS011;9975;48.046;7.804;2022-11-14T12:55:18;7.27;;;5.17;;
19653;SDS011;9975;48.046;7.804;2022-11-14T12:58:06;4.60;;;3.90;;
19653;SDS011;9975;48.046;7.804;2022-11-14T13:03:19;4.10;;;3.43;;
19653;SDS011;9975;48.046;7.804;2022-11-14T13:11:54;6.50;;;3.50;;
19653;SDS011;9975;48.046;7.804;2022-11-14T13:14:24;4.47;;;3.47;;
19653;SDS011;9975;48.046;7.804;2022-11-14T13:17:09;4.03;;;3.63;;
19653;SDS011;9975;48.046;7.804;2022-11-14T13:20:13;9.90;;;4.43;;
19653;SDS011;9975;48.046;7.804;2022-11-14T13:23:04;13.77;;;8.23;;
19653;SDS011;9975;48.046;7.804;2022-11-14T13:25:29;6.07;;;4.40;;
19653;SDS011;9975;48.046;7.804;2022-11-14T13:27:55;6.30;;;5.57;;
19653;SDS011;9975;48.046;7.804;2022-11-14T13:36:36;8.70;;;5.20;;
19653;SDS011;9975;48.046;7.804;2022-11-14T13:42:34;14.70;;;4.57;;
19653;SDS011;9975;48.046;7.804;2022-11-14T13:45:38;5.17;;;4.30;;
19653;SDS011;9975;48.046;7.804;2022-11-14T13:50:46;4.73;;;3.37;;
19653;SDS011;9975;48.046;7.804;2022-11-14T13:53:17;3.43;;;3.13;;
19653;SDS011;9975;48.046;7.804;2022-11-14T13:55:53;5.23;;;4.07;;
19653;SDS011;9975;48.046;7.804;2022-11-14T14:04:07;7.13;;;4.73;;
19653;SDS011;9975;48.046;7.804;2022-11-14T14:12:22;5.50;;;3.53;;
19653;SDS011;9975;48.046;7.804;2022-11-14T14:17:43;7.27;;;3.63;;
19653;SDS011;9975;48.046;7.804;2022-11-14T14:20:24;9.47;;;4.97;;
19653;SDS011;9975;48.046;7.804;2022-11-14T14:26:14;12.10;;;5.07;;
19653;SDS011;9975;48.046;7.804;2022-11-14T14:28:55;7.07;;;4.50;;
19653;SDS011;9975;48.046;7.804;2022-11-14T14:31:43;9.00;;;6.00;;
19653;SDS011;9975;48.046;7.804;2022-11-14T14:34:19;4.43;;;2.90;;
19653;SDS011;9975;48.046;7.804;2022-11-14T14:36:51;4.40;;;3.20;;
19653;SDS011;9975;48.046;7.804;2022-11-14T14:39:20;5.67;;;4.70;;
19653;SDS011;9975;48.046;7.804;2022-11-14T14:41:50;5.90;;;3.67;;
19653;SDS011;9975;48.046;7.804;2022-11-14T14:44:31;6.73;;;4.27;;
19653;SDS011;9975;48.046;7.804;2022-11-14T14:49:51;11.37;;;4.73;;
19653;SDS011;9975;48.046;7.804;2022-11-14T14:52:18;14.20;;;7.30;;
19653;SDS011;9975;48.046;7.804;2022-11-14T14:54:53;18.53;;;9.47;;
19653;SDS011;9975;48.046;7.804;2022-11-14T14:57:38;10.73;;;4.70;;
19653;SDS011;9975;48.046;7.804;2022-11-14T15:00:05;9.47;;;4.40;;
19653;SDS011;9975;48.046;7.804;2022-11-14T15:02:32;4.73;;;2.77;;
19653;SDS011;9975;48.046;7.804;2022-11-14T15:04:59;4.90;;;2.53;;
19653;SDS011;9975;48.046;7.804;2022-11-14T15:07:26;6.50;;;5.17;;
19653;SDS011;9975;48.046;7.804;2022-11-14T15:09:58;11.43;;;6.33;;
19653;SDS011;9975;48.046;7.804;2022-11-14T15:12:26;7.07;;;4.60;;
19653;SDS011;9975;48.046;7.804;2022-11-14T15:14:54;5.97;;;4.47;;
19653;SDS011;9975;48.046;7.804;2022-11-14T15:17:25;9.03;;;5.97;;
19653;SDS011;9975;48.046;7.804;2022-11-14T15:19:52;8.57;;;5.17;;
19653;SDS011;9975;48.046;7.804;2022-11-14T15:24:43;28.87;;;15.67;;
19653;SDS011;9975;48.046;7.804;2022-11-14T15:27:28;33.87;;;17.00;;
19653;SDS011;9975;48.046;7.804;2022-11-14T15:30:00;21.23;;;11.60;;
19653;SDS011;9975;48.046;7.804;2022-11-14T15:32:27;9.57;;;5.40;;
19653;SDS011;9975;48.046;7.804;2022-11-14T15:40:29;29.10;;;14.40;;
19653;SDS011;9975;48.046;7.804;2022-11-14T15:42:56;15.57;;;7.40;;
19653;SDS011;9975;48.046;7.804;2022-11-14T15:45:41;29.43;;;13.83;;
19653;SDS011;9975;48.046;7.804;2022-11-14T15:48:11;14.30;;;8.27;;
19653;SDS011;9975;48.046;7.804;2022-11-14T15:50:39;12.53;;;7.30;;
19653;SDS011;9975;48.046;7.804;2022-11-14T15:53:13;10.70;;;8.13;;
19653;SDS011;9975;48.046;7.804;2022-11-14T15:55:46;8.50;;;6.53;;
19653;SDS011;9975;48.046;7.804;2022-11-14T15:58:12;13.80;;;7.70;;
19653;SDS011;9975;48.046;7.804;2022-11-14T16:00:45;10.77;;;6.27;;
19653;SDS011;9975;48.046;7.804;2022-11-14T16:03:16;19.00;;;7.47;;
19653;SDS011;9975;48.046;7.804;2022-11-14T16:05:44;42.70;;;21.30;;
19653;SDS011;9975;48.046;7.804;2022-11-14T16:08:12;22.37;;;13.50;;
19653;SDS011;9975;48.046;7.804;2022-11-14T16:10:38;16.87;;;11.00;;
19653;SDS011;9975;48.046;7.804;2022-11-14T16:13:04;9.27;;;7.40;;
19653;SDS011;9975;48.046;7.804;2022-11-14T16:15:30;17.30;;;9.77;;
19653;SDS011;9975;48.046;7.804;2022-11-14T16:17:56;51.27;;;25.97;;
19653;SDS011;9975;48.046;7.804;2022-11-14T16:20:25;75.17;;;39.20;;
19653;SDS011;9975;48.046;7.804;2022-11-14T16:22:53;62.03;;;32.97;;
19653;SDS011;9975;48.046;7.804;2022-11-14T16:25:24;52.20;;;26.77;;
19653;SDS011;9975;48.046;7.804;2022-11-14T16:27:52;45.40;;;25.23;;
19653;SDS011;9975;48.046;7.804;2022-11-14T16:30:18;44.23;;;24.13;;
19653;SDS011;9975;48.046;7.804;2022-11-14T16:32:47;38.87;;;22.17;;
19653;SDS011;9975;48.046;7.804;2022-11-14T16:35:17;40.90;;;23.17;;
19653;SDS011;9975;48.046;7.804;2022-11-14T16:37:44;34.90;;;21.30;;
19653;SDS011;9975;48.046;7.804;2022-11-14T16:40:14;29.70;;;17.87;;
19653;SDS011;9975;48.046;7.804;2022-11-14T16:42:43;36.53;;;20.70;;
19653;SDS011;9975;48.046;7.804;2022-11-14T16:45:09;31.80;;;19.80;;
19653;SDS011;9975;48.046;7.804;2022-11-14T16:47:35;33.20;;;19.80;;
19653;SDS011;9975;48.046;7.804;2022-11-14T16:50:01;29.90;;;19.90;;
19653;SDS011;9975;48.046;7.804;2022-11-14T16:52:28;40.83;;;20.93;;
19653;SDS011;9975;48.046;7.804;2022-11-14T16:54:53;23.83;;;16.43;;
19653;SDS011;9975;48.046;7.804;2022-11-14T16:57:19;31.77;;;22.67;;
19653;SDS011;9975;48.046;7.804;2022-11-14T16:59:44;40.63;;;27.30;;
19653;SDS011;9975;48.046;7.804;2022-11-14T17:02:12;26.60;;;18.23;;
19653;SDS011;9975;48.046;7.804;2022-11-14T17:04:39;35.67;;;23.97;;
19653;SDS011;9975;48.046;7.804;2022-11-14T17:07:06;46.37;;;29.07;;
19653;SDS011;9975;48.046;7.804;2022-11-14T17:09:32;43.10;;;28.03;;
19653;SDS011;9975;48.046;7.804;2022-11-14T17:11:58;29.93;;;19.53;;
19653;SDS011;9975;48.046;7.804;2022-11-14T17:14:24;29.80;;;17.90;;
19653;SDS011;9975;48.046;7.804;2022-11-14T17:16:49;38.63;;;24.00;;
19653;SDS011;9975;48.046;7.804;2022-11-14T17:19:15;53.00;;;30.97;;
19653;SDS011;9975;48.046;7.804;2022-11-14T17:21:43;53.00;;;30.17;;
19653;SDS011;9975;48.046;7.804;2022-11-14T17:24:08;54.20;;;32.23;;
19653;SDS011;9975;48.046;7.804;2022-11-14T17:26:34;42.10;;;28.30;;
19653;SDS011;9975;48.046;7.804;2022-11-14T17:29:03;42.13;;;29.50;;
19653;SDS011;9975;48.046;7.804;2022-11-14T17:31:29;43.33;;;29.10;;
19653;SDS011;9975;48.046;7.804;2022-11-14T17:33:56;44.50;;;28.40;;
19653;SDS011;9975;48.046;7.804;2022-11-14T17:36:23;44.50;;;29.93;;
19653;SDS011;9975;48.046;7.804;2022-11-14T17:38:50;39.33;;;26.70;;
19653;SDS011;9975;48.046;7.804;2022-11-14T17:41:16;39.77;;;27.57;;
19653;SDS011;9975;48.046;7.804;2022-11-14T17:43:42;39.37;;;27.07;;
19653;SDS011;9975;48.046;7.804;2022-11-14T17:46:20;38.23;;;27.63;;
19653;SDS011;9975;48.046;7.804;2022-11-14T17:48:46;37.63;;;25.17;;
19653;SDS011;9975;48.046;7.804;2022-11-14T17:51:12;39.70;;;26.40;;
19653;SDS011;9975;48.046;7.804;2022-11-14T17:53:40;44.67;;;28.33;;
19653;SDS011;9975;48.046;7.804;2022-11-14T17:56:06;35.53;;;25.23;;
19653;SDS011;9975;48.046;7.804;2022-11-14T17:58:36;48.57;;;31.53;;
19653;SDS011;9975;48.046;7.804;2022-11-14T18:01:07;45.70;;;29.43;;
19653;SDS011;9975;48.046;7.804;2022-11-14T18:03:34;38.63;;;25.40;;
19653;SDS011;9975;48.046;7.804;2022-11-14T18:08:33;40.90;;;26.10;;
19653;SDS011;9975;48.046;7.804;2022-11-14T18:10:59;39.80;;;26.37;;
19653;SDS011;9975;48.046;7.804;2022-11-14T18:13:26;46.80;;;29.00;;
19653;SDS011;9975;48.046;7.804;2022-11-14T18:15:51;64.80;;;38.67;;
19653;SDS011;9975;48.046;7.804;2022-11-14T18:18:17;40.90;;;27.23;;
19653;SDS011;9975;48.046;7.804;2022-11-14T18:20:45;48.80;;;33.73;;
19653;SDS011;9975;48.046;7.804;2022-11-14T18:23:11;59.07;;;39.07;;
19653;SDS011;9975;48.046;7.804;2022-11-14T18:25:37;70.60;;;41.60;;
19653;SDS011;9975;48.046;7.804;2022-11-14T18:28:02;42.33;;;28.73;;
19653;SDS011;9975;48.046;7.804;2022-11-14T18:30:28;44.77;;;31.13;;
19653;SDS011;9975;48.046;7.804;2022-11-14T18:32:54;43.03;;;30.17;;
19653;SDS011;9975;48.046;7.804;2022-11-14T18:35:21;41.10;;;29.17;;
19653;SDS011;9975;48.046;7.804;2022-11-14T18:37:47;37.67;;;25.90;;
19653;SDS011;9975;48.046;7.804;2022-11-14T18:40:12;33.70;;;26.00;;
19653;SDS011;9975;48.046;7.804;2022-11-14T18:42:38;35.07;;;26.73;;
19653;SDS011;9975;48.046;7.804;2022-11-14T18:45:04;37.20;;;26.73;;
19653;SDS011;9975;48.046;7.804;2022-11-14T18:47:30;44.60;;;29.80;;